Relevés horaires Bierset (Belgique)


Relevés horaires à Bierset - Mardi 19 Juin 2018
Heure UTC1 Température [°C] Vent [km/h] Hum. [%] Pres.4 [hPa] Visi. [Km] Nébu. [octa] Préc.5 [mm] Cond.
2m. Res. Ros. Dir.2 Vit. Moy. Raf.3
23:00 17.2 17.2 15.8 O 1.9 5.6 7.4 91 1024.7(0.2/3h) 40 7/8 -- --
22:00 18.0 18.0 16.0 OSO 5.6 5.6 7.4 88 1024.7(0.3/3h) 40 7/8 -- --
21:00 18.3 18.3 15.9 O 1.9 3.7 5.6 86 1024.7(0.3/3h) 50 8/8 -- --
20:00 18.7 18.7 15.9 O 1.9 3.7 3.7 84 1024.4(-0.3/3h) 40 8/8 -- --
19:00 19.0 19.0 15.6 O 3.7 3.7 5.6 81 1024.3(-0.5/3h) 40 7/8 -- --
18:00 19.2 19.2 15.6 O 3.7 7.4 11.1 80 1024.4(-0.6/3h) 40 7/8 0/12h
--
17:00 19.2 19.2 15.6 OSO 3.7 7.4 9.3 80 1024.6(-0.4/3h) 25 7/8 -- --
16:00 19.5 19.5 15.6 O 5.6 7.4 9.3 78 1024.7(-0.3/3h) 25 7/8 -- --
15:00 19.6 19.6 15.1 OSO 7.4 7.4 11.1 75 1024.9(0.0/3h) 25 7/8 -- --
14:00 19.4 19.4 15.3 O 7.4 7.4 11.1 77 1025(0.1/3h) 20 7/8 -- --
13:00 19.0 19.0 15.4 O 7.4 7.4 11.1 80 1025.1(0.3/3h) 20 7/8 -- --
12:00 18.5 18.5 14.8 OSO 7.4 11.1 14.8 79 1024.9(0.2/3h) 20 7/8 0/6h
--
11:00 18.1 18.1 15.0 O 7.4 11.1 14.8 82 1025(0.6/3h) 20 7/8 -- --
10:00 17.9 17.9 15.3 SO 9.3 11.1 14.8 85 1024.9(0.7/3h) 20 8/8 -- --
09:00 17.1 17.1 14.8 OSO 9.3 11.1 14.8 86 1024.8(1.0/3h) 9 8/8 -- --
08:00 16.8 16.8 14.8 OSO 9.3 11.1 14.8 88 1024.6(0.7/3h) 28 8/8 -- --
07:00 16.5 16.5 14.5 SO 9.3 9.3 13.0 88 1024.2(0.5/3h) 28 8/8 -- --
06:00 16.0 15.9 14.3 SO 9.3 11.1 14.8 90 1023.9(0.8/3h) 28 7/8 0/12h
--
05:00 15.1 14.8 13.7 SO 9.3 9.3 13.0 91 1024(1.0/3h) 18 7/8 -- --
04:00 14.4 14 13.2 SO 9.3 9.3 14.8 92 1023.8(1.0/3h) 20 6/8 -- --
03:00 13.6 13 12.6 SO 9.3 11.1 14.8 94 1023.3(0.3/3h) 35 1/8 -- --
02:00 14.4 13.8 12.4 SO 11.1 11.1 13.0 88 1023(0.0/3h) 35 1/8 -- --
01:00 14.4 14.3 12.7 SO 7.4 9.3 13.0 90 1022.9(0.1/3h) 35 1/8 -- --
00:00 14.7 14.6 12.3 SO 7.4 11.1 14.8 86 1022.9(0.3/3h) 35 1/8 0/6h
0/24h
--

1 Coordinated Universal Time. Actuellement il est 04:00 locale et 02:00 UTC.

2 Le vent souffle depuis la direction indiquée vers la direction oposée.

3 Les rafales max. sont disponible 40 min après l'heure du relevé.

4 Pour les stations d'altitude (plus de 600m) le géopotentiel du niveau le plus proche de la pression obligatoire est indiqué.

5 Les stations disposant d'un diffuseur peuvent indiquer "trace". Cela signifie que des précipitations ont touchés le sol mais que la quantité est inférieure à 0.1 mm.

Récapitulatif de la journée
Température [°C] Vent [km/h] Ensoleillement4 [h] Precipitations totale5 [mm] Pression [Hpa]
Min1 Max.2 Moy.3 Max. Min Max.
13.5 19.8 8.5 14.8 0 h 0 min 0 1022.9 1025.1

1 Température minimale relevée entre 18:00 UTC la veille et 18:00 UTC le jour donné.

2 Température maximale relevée entre 06:00 UTC le jour donné et 06:00 UTC le lendemain.

3 Vent moyen de la journée basé sur les relevés horaires.

4 Ensoleillement en heures relevé entre 06:00 UTC la veille et 06:00 UTC le jour donné.

5 Précipitations totales tombées entre 06:00 UTC la jour donné et 06:00 UTC le lendemain.

Graphiques horaires